createdAt,value
2018-04-25T00:00:52.665Z,76.28
2018-04-25T00:03:20.325Z,76.11
2018-04-25T00:05:47.797Z,76.39
2018-04-25T00:08:15.272Z,76.77
2018-04-25T00:10:42.786Z,77.14
2018-04-25T00:13:10.292Z,77.51
2018-04-25T00:15:37.999Z,76.99
2018-04-25T00:18:05.497Z,77.59
2018-04-25T00:20:32.976Z,76.57
2018-04-25T00:23:00.476Z,77.23
2018-04-25T00:25:27.952Z,77.05
2018-04-25T00:27:55.461Z,76.55
2018-04-25T00:30:22.934Z,76.86
2018-04-25T00:32:50.441Z,77.38
2018-04-25T00:35:17.941Z,77.13
2018-04-25T00:37:45.421Z,76.89
2018-04-25T00:40:13.309Z,76.62
2018-04-25T00:42:40.787Z,77.30
2018-04-25T00:45:08.275Z,77.07
2018-04-25T00:47:35.792Z,77.37
2018-04-25T00:50:03.265Z,77.39
2018-04-25T00:52:31.046Z,78.07
2018-04-25T00:54:58.529Z,78.40
2018-04-25T00:57:26.004Z,78.35
2018-04-25T00:59:53.529Z,77.67
2018-04-25T01:02:21.025Z,78.20
2018-04-25T01:04:48.549Z,78.66
2018-04-25T01:07:16.034Z,78.46
2018-04-25T01:09:43.513Z,79.04
2018-04-25T01:12:11.021Z,78.71
2018-04-25T01:14:38.506Z,78.30
2018-04-25T01:17:06.028Z,78.29
2018-04-25T01:19:33.517Z,78.26
2018-04-25T01:22:01.015Z,78.76
2018-04-25T01:24:28.516Z,78.44
2018-04-25T01:27:10.890Z,78.82
2018-04-25T01:29:39.200Z,79.33
2018-04-25T01:32:07.585Z,80.03
2018-04-25T01:34:46.640Z,79.71
2018-04-25T01:40:28.936Z,80.03
2018-04-25T01:42:57.989Z,80.74
2018-04-25T01:48:29.189Z,79.22
2018-04-25T01:50:58.038Z,79.68
2018-04-25T01:53:37.212Z,79.45
2018-04-25T01:56:16.345Z,79.95
2018-04-25T01:58:55.841Z,79.27
2018-04-25T02:01:22.804Z,80.13
2018-04-25T02:03:55.241Z,80.14
2018-04-25T02:06:22.766Z,79.87
2018-04-25T02:08:50.236Z,80.48
2018-04-25T02:11:17.741Z,80.46
2018-04-25T02:13:45.424Z,80.43
2018-04-25T02:16:12.941Z,80.74
2018-04-25T02:18:40.425Z,81.02
2018-04-25T02:21:07.933Z,80.58
2018-04-25T02:23:35.449Z,80.68
2018-04-25T02:26:02.917Z,79.89
2018-04-25T02:28:30.561Z,80.18
2018-04-25T02:30:58.033Z,80.32
2018-04-25T02:33:25.517Z,81.58
2018-04-25T02:35:53.020Z,81.24
2018-04-25T02:38:20.493Z,82.01
2018-04-25T02:40:47.984Z,80.71
2018-04-25T02:43:15.683Z,81.09
2018-04-25T02:45:45.006Z,81.17
2018-04-25T02:48:12.492Z,81.94
2018-04-25T02:50:40.275Z,81.66
2018-04-25T02:53:07.756Z,81.76
2018-04-25T02:55:35.241Z,80.68
2018-04-25T02:58:02.955Z,80.98
2018-04-25T03:00:30.431Z,80.56
2018-04-25T03:02:57.902Z,81.13
2018-04-25T03:05:25.705Z,79.88
2018-04-25T03:07:53.181Z,80.97
2018-04-25T03:10:20.656Z,81.04
2018-04-25T03:12:48.188Z,81.49
2018-04-25T03:15:15.665Z,81.35
2018-04-25T03:17:43.150Z,82.55
2018-04-25T03:20:10.677Z,81.98
2018-04-25T03:22:38.233Z,82.55
2018-04-25T03:25:05.657Z,82.49
2018-04-25T03:27:33.304Z,82.30
2018-04-25T03:30:00.788Z,82.87
2018-04-25T03:32:28.257Z,82.32
2018-04-25T03:34:55.768Z,82.45
2018-04-25T03:37:23.240Z,81.96
2018-04-25T03:39:50.745Z,83.14
2018-04-25T03:42:18.253Z,81.93
2018-04-25T03:44:45.761Z,82.42
2018-04-25T03:47:13.284Z,82.25
2018-04-25T03:49:40.758Z,82.26
2018-04-25T03:52:08.233Z,81.91
2018-04-25T03:54:35.752Z,82.07
2018-04-25T03:57:03.221Z,83.29
2018-04-25T03:59:30.825Z,82.64
2018-04-25T04:01:58.317Z,82.67
2018-04-25T04:04:25.789Z,83.17
2018-04-25T04:06:53.293Z,83.40
2018-04-25T04:09:20.776Z,82.54
2018-04-25T04:11:48.620Z,83.36
2018-04-25T04:14:16.093Z,83.50
2018-04-25T04:16:43.563Z,83.09
2018-04-25T04:19:11.060Z,83.43
2018-04-25T04:21:38.564Z,83.60
2018-04-25T04:24:06.089Z,83.65
2018-04-25T04:26:33.562Z,84.00
2018-04-25T04:29:01.037Z,83.41
2018-04-25T04:31:28.540Z,83.76
2018-04-25T04:33:56.017Z,82.81
2018-04-25T04:36:23.685Z,83.11
2018-04-25T04:38:51.153Z,82.49
2018-04-25T04:41:18.621Z,81.86
2018-04-25T04:43:46.145Z,82.46
2018-04-25T04:46:13.637Z,81.56
2018-04-25T04:48:41.452Z,82.18
2018-04-25T04:51:08.958Z,81.77
2018-04-25T04:53:36.441Z,81.63
2018-04-25T04:56:03.964Z,82.03
2018-04-25T04:58:31.453Z,81.92
2018-04-25T05:00:59.052Z,82.53
2018-04-25T05:03:26.529Z,81.92
2018-04-25T05:05:54.024Z,79.46
2018-04-25T05:08:21.688Z,79.57
2018-04-25T05:10:49.153Z,75.84
2018-04-25T05:13:16.853Z,75.90
2018-04-25T05:15:44.345Z,73.70
2018-04-25T05:18:11.845Z,72.20
2018-04-25T05:20:39.341Z,71.37
2018-04-25T05:23:06.821Z,71.22
2018-04-25T05:25:34.612Z,70.90
2018-04-25T05:28:02.089Z,70.68
2018-04-25T05:30:29.586Z,69.30
2018-04-25T05:32:57.085Z,68.09
2018-04-25T05:35:24.583Z,68.04
2018-04-25T05:37:52.273Z,70.25
2018-04-25T05:40:19.760Z,71.42
2018-04-25T05:42:47.241Z,73.52
2018-04-25T05:45:14.744Z,74.75
2018-04-25T05:47:42.257Z,76.08
2018-04-25T05:50:09.784Z,75.80
2018-04-25T05:52:37.256Z,75.61
2018-04-25T05:55:04.742Z,76.45
2018-04-25T05:57:32.255Z,77.38
2018-04-25T05:59:59.753Z,77.23
2018-04-25T06:02:27.377Z,76.55
2018-04-25T06:04:54.854Z,76.48
2018-04-25T06:07:22.341Z,76.86
2018-04-25T06:09:49.845Z,76.79
2018-04-25T06:12:17.392Z,74.55
2018-04-25T06:14:45.029Z,73.95
2018-04-25T06:17:12.517Z,74.68
2018-04-25T06:19:40.004Z,74.72
2018-04-25T06:22:07.517Z,74.59
2018-04-25T06:24:35.000Z,73.52
2018-04-25T06:27:02.537Z,75.25
2018-04-25T06:29:30.024Z,73.96
2018-04-25T06:31:57.517Z,72.95
2018-04-25T06:34:25.025Z,70.25
2018-04-25T06:36:52.501Z,69.86
2018-04-25T06:39:20.023Z,68.68
2018-04-25T06:41:47.538Z,69.73
2018-04-25T06:44:15.037Z,71.31
2018-04-25T06:46:42.548Z,69.95
2018-04-25T06:49:10.030Z,67.87
2018-04-25T06:51:37.816Z,67.02
2018-04-25T06:54:05.305Z,66.11
2018-04-25T06:56:32.788Z,66.71
2018-04-25T06:59:00.334Z,66.29
2018-04-25T07:01:27.815Z,66.55
2018-04-25T07:03:55.328Z,65.79
2018-04-25T07:06:22.824Z,65.78
2018-04-25T07:08:50.320Z,64.45
2018-04-25T07:11:17.836Z,64.27
2018-04-25T07:13:45.321Z,64.33
2018-04-25T07:16:12.833Z,64.66
2018-04-25T07:18:40.326Z,63.96
2018-04-25T07:21:07.801Z,63.98
2018-04-25T07:23:35.306Z,63.79
2018-04-25T07:26:02.788Z,64.24
2018-04-25T07:28:30.449Z,64.33
2018-04-25T07:30:57.924Z,63.67
2018-04-25T07:33:25.406Z,63.63
2018-04-25T07:35:52.909Z,63.68
2018-04-25T07:38:20.413Z,64.52
2018-04-25T07:40:48.055Z,64.21
2018-04-25T07:43:15.528Z,64.96
2018-04-25T07:45:43.026Z,63.80
2018-04-25T07:48:10.533Z,65.07
2018-04-25T07:50:38.036Z,63.82
2018-04-25T07:53:05.545Z,64.77
2018-04-25T07:55:33.028Z,64.11
2018-04-25T07:58:00.515Z,63.68
2018-04-25T08:00:28.026Z,63.97
2018-04-25T08:02:55.549Z,64.49
2018-04-25T08:05:23.078Z,63.21
2018-04-25T08:07:50.585Z,62.63
2018-04-25T08:10:18.069Z,62.82
2018-04-25T08:12:57.541Z,63.49
2018-04-25T08:15:36.874Z,64.22
2018-04-25T08:18:16.068Z,63.65
2018-04-25T08:20:55.433Z,63.82
2018-04-25T08:23:22.957Z,63.44
2018-04-25T08:25:50.453Z,64.13
2018-04-25T08:28:17.970Z,64.51
2018-04-25T08:30:45.450Z,63.98
2018-04-25T08:33:12.964Z,64.14
2018-04-25T08:35:40.481Z,63.64
2018-04-25T08:38:07.960Z,63.07
2018-04-25T08:40:35.614Z,63.79
2018-04-25T08:43:03.092Z,63.66
2018-04-25T08:45:30.588Z,63.56
2018-04-25T08:47:58.102Z,63.05
2018-04-25T08:50:25.589Z,63.02
2018-04-25T08:52:53.107Z,63.11
2018-04-25T08:55:20.585Z,62.62
2018-04-25T08:57:48.072Z,62.61
2018-04-25T09:00:15.575Z,61.40
2018-04-25T09:02:43.093Z,62.39
2018-04-25T09:05:10.927Z,61.85
2018-04-25T09:07:38.433Z,61.03
2018-04-25T09:10:05.923Z,61.11
2018-04-25T09:12:33.432Z,60.87
2018-04-25T09:15:00.911Z,61.98
2018-04-25T09:17:28.688Z,60.96
2018-04-25T09:19:56.176Z,62.09
2018-04-25T09:22:23.669Z,61.99
2018-04-25T09:24:51.192Z,61.86
2018-04-25T09:27:18.686Z,60.96
2018-04-25T09:29:46.209Z,61.46
2018-04-25T09:32:13.688Z,61.28
2018-04-25T09:34:41.181Z,60.81
2018-04-25T09:37:08.689Z,60.28
2018-04-25T09:39:36.168Z,59.15
2018-04-25T09:42:03.897Z,59.12
2018-04-25T09:44:31.378Z,57.88
2018-04-25T09:46:58.857Z,57.35
2018-04-25T09:49:26.377Z,56.81
2018-04-25T09:51:53.907Z,57.91
2018-04-25T09:54:21.541Z,57.81
2018-04-25T09:56:49.025Z,58.31
2018-04-25T09:59:16.501Z,57.44
2018-04-25T10:01:43.997Z,57.31
2018-04-25T10:04:11.472Z,57.19
2018-04-25T10:06:38.970Z,56.02
2018-04-25T10:09:06.445Z,56.59
2018-04-25T10:11:34.160Z,56.52
2018-04-25T10:14:01.648Z,56.05
2018-04-25T10:16:29.129Z,55.97
2018-04-25T10:18:56.640Z,58.23
2018-04-25T10:21:24.120Z,58.23
2018-04-25T10:23:52.101Z,59.00
2018-04-25T10:26:19.585Z,58.34
2018-04-25T10:28:47.070Z,59.07
2018-04-25T10:31:14.584Z,60.47
2018-04-25T10:33:42.060Z,59.80
2018-04-25T10:36:10.094Z,58.96
2018-04-25T10:38:37.573Z,58.53
2018-04-25T10:41:05.058Z,58.96
2018-04-25T10:43:32.598Z,58.49
2018-04-25T10:46:00.087Z,58.20
2018-04-25T10:48:27.860Z,58.66
2018-04-25T10:50:55.369Z,58.45
2018-04-25T10:53:22.844Z,58.78
2018-04-25T10:55:50.345Z,58.41
2018-04-25T10:58:17.825Z,58.73
2018-04-25T11:00:45.515Z,58.45
2018-04-25T11:03:12.989Z,58.12
2018-04-25T11:05:40.465Z,57.44
2018-04-25T11:08:07.961Z,57.40
2018-04-25T11:10:35.477Z,57.85
2018-04-25T11:13:03.233Z,60.31
2018-04-25T11:15:30.721Z,62.98
2018-04-25T11:17:58.201Z,61.62
2018-04-25T11:20:25.785Z,60.47
2018-04-25T11:22:53.224Z,60.03
2018-04-25T11:25:20.992Z,59.34
2018-04-25T11:27:48.473Z,58.38
2018-04-25T11:30:15.976Z,58.34
2018-04-25T11:32:43.489Z,58.84
2018-04-25T11:35:10.964Z,58.54
2018-04-25T11:37:38.648Z,58.25
2018-04-25T11:40:06.142Z,58.63
2018-04-25T11:42:33.640Z,58.60
2018-04-25T11:45:01.137Z,58.54
2018-04-25T11:47:28.633Z,59.06
2018-04-25T11:49:56.375Z,59.87
2018-04-25T11:52:23.885Z,60.49
2018-04-25T11:54:57.297Z,61.75
2018-04-25T11:57:24.779Z,61.73
2018-04-25T11:59:52.259Z,61.05
2018-04-25T12:02:19.822Z,60.88
2018-04-25T12:04:47.324Z,60.95
2018-04-25T12:07:14.937Z,61.25
2018-04-25T12:09:42.417Z,60.74
2018-04-25T12:12:09.898Z,61.47
2018-04-25T12:14:37.394Z,61.68
2018-04-25T12:17:04.869Z,61.99
2018-04-25T12:19:32.593Z,63.01
2018-04-25T12:22:00.078Z,63.38
2018-04-25T12:24:27.617Z,63.39
2018-04-25T12:26:55.102Z,62.24
2018-04-25T12:29:22.591Z,61.04
2018-04-25T12:31:50.353Z,60.59
2018-04-25T12:34:17.829Z,60.33
2018-04-25T12:36:45.309Z,60.01
2018-04-25T12:39:12.813Z,59.82
2018-04-25T12:41:40.363Z,60.96
2018-04-25T12:44:08.213Z,62.21
2018-04-25T12:46:35.706Z,63.83
2018-04-25T12:49:03.195Z,64.30
2018-04-25T12:51:30.696Z,63.33
2018-04-25T12:53:58.195Z,60.61
2018-04-25T12:56:25.707Z,59.90
2018-04-25T12:58:53.188Z,60.05
2018-04-25T13:01:20.675Z,63.11
2018-04-25T13:03:48.183Z,64.89
2018-04-25T13:06:15.661Z,59.61
2018-04-25T13:08:43.341Z,62.49
2018-04-25T13:11:10.824Z,59.69
2018-04-25T13:13:38.313Z,59.47
2018-04-25T13:16:05.850Z,60.12
2018-04-25T13:18:33.322Z,59.43
2018-04-25T13:21:01.073Z,60.72
2018-04-25T13:23:28.553Z,61.72
2018-04-25T13:25:56.029Z,62.61
2018-04-25T13:28:23.533Z,61.52
2018-04-25T13:30:51.015Z,63.35
2018-04-25T13:33:18.833Z,64.67
2018-04-25T13:35:46.308Z,62.62
2018-04-25T13:38:13.804Z,62.42
2018-04-25T13:40:41.309Z,63.26
2018-04-25T13:43:08.810Z,62.14
2018-04-25T13:45:36.345Z,62.42
2018-04-25T13:48:03.828Z,61.04
2018-04-25T13:50:31.454Z,59.82
2018-04-25T13:52:58.936Z,58.55
2018-04-25T13:55:26.409Z,58.84
2018-04-25T13:57:53.916Z,59.39
2018-04-25T14:00:21.394Z,56.71
2018-04-25T14:02:49.076Z,57.00
2018-04-25T14:05:16.586Z,56.27
2018-04-25T14:07:44.068Z,56.98
2018-04-25T14:10:11.605Z,57.83
2018-04-25T14:12:39.090Z,57.96
2018-04-25T14:15:06.598Z,59.48
2018-04-25T14:17:34.134Z,61.68
2018-04-25T14:20:01.666Z,60.27
2018-04-25T14:22:29.146Z,61.17
2018-04-25T14:24:56.645Z,64.57
2018-04-25T14:27:24.183Z,65.51
2018-04-25T14:29:51.661Z,65.82
2018-04-25T14:32:19.164Z,63.32
2018-04-25T14:34:46.649Z,63.72
2018-04-25T14:37:14.281Z,62.65
2018-04-25T14:39:41.781Z,62.47
2018-04-25T14:42:09.281Z,62.79
2018-04-25T14:44:36.781Z,63.29
2018-04-25T14:47:04.294Z,64.41
2018-04-25T14:49:31.801Z,64.00
2018-04-25T14:51:59.318Z,64.95
2018-04-25T14:54:26.846Z,64.77
2018-04-25T14:56:54.325Z,65.84
2018-04-25T14:59:22.121Z,66.10
2018-04-25T15:01:49.605Z,67.03
2018-04-25T15:04:17.100Z,68.02
2018-04-25T15:09:11.576Z,67.50
2018-04-25T15:11:39.086Z,67.90
2018-04-25T15:14:06.573Z,68.40
2018-04-25T15:16:34.092Z,68.68
2018-04-25T15:19:01.572Z,70.35
2018-04-25T15:21:29.068Z,73.56
2018-04-25T15:23:56.565Z,72.40
2018-04-25T15:26:24.081Z,71.91
2018-04-25T15:28:51.640Z,71.03
2018-04-25T15:31:19.121Z,71.39
2018-04-25T15:33:46.606Z,71.23
2018-04-25T15:36:14.113Z,70.15
2018-04-25T15:38:41.600Z,69.49
2018-04-25T15:41:09.119Z,69.14
2018-04-25T15:43:36.612Z,69.78
2018-04-25T15:46:04.133Z,70.87
2018-04-25T15:48:31.612Z,70.76
2018-04-25T15:50:59.092Z,69.96
2018-04-25T15:53:26.662Z,69.47
2018-04-25T15:55:54.102Z,69.75
2018-04-25T15:58:21.716Z,69.96
2018-04-25T16:00:49.203Z,70.28
2018-04-25T16:03:16.716Z,69.49
2018-04-25T16:05:44.225Z,68.94
2018-04-25T16:08:11.727Z,68.25
2018-04-25T16:10:39.230Z,68.38
2018-04-25T16:13:06.724Z,67.24
2018-04-25T16:15:34.239Z,66.57
2018-04-25T16:18:01.720Z,66.40
2018-04-25T16:20:29.237Z,65.85
2018-04-25T16:22:56.765Z,66.15
2018-04-25T16:25:24.221Z,66.03
2018-04-25T16:27:51.737Z,66.31
2018-04-25T16:30:19.217Z,66.78
2018-04-25T16:32:47.001Z,66.18
2018-04-25T16:35:14.478Z,67.75
2018-04-25T16:37:41.958Z,68.04
2018-04-25T16:40:09.505Z,68.42
2018-04-25T16:42:36.989Z,68.51
2018-04-25T16:45:04.493Z,69.08
2018-04-25T16:47:31.979Z,69.61
2018-04-25T16:49:59.701Z,70.28
2018-04-25T16:52:27.197Z,70.47
2018-04-25T16:54:54.689Z,70.33
2018-04-25T16:57:22.204Z,70.48
2018-04-25T16:59:49.698Z,70.85
2018-04-25T17:02:17.228Z,71.50
2018-04-25T17:04:44.732Z,70.89
2018-04-25T17:07:12.417Z,71.59
2018-04-25T17:09:39.998Z,72.50
2018-04-25T17:12:07.441Z,74.95
2018-04-25T17:14:34.946Z,73.73
2018-04-25T17:17:02.462Z,75.16
2018-04-25T17:19:29.979Z,76.14
2018-04-25T17:21:57.485Z,75.99
2018-04-25T17:24:25.211Z,75.90
2018-04-25T17:26:52.723Z,76.39
2018-04-25T17:29:20.217Z,76.56
2018-04-25T17:31:47.747Z,76.65
2018-04-25T17:34:15.272Z,76.63
2018-04-25T17:36:42.807Z,76.53
2018-04-25T17:39:10.311Z,75.85
2018-04-25T17:41:38.307Z,77.07
2018-04-25T17:44:05.801Z,75.31
2018-04-25T17:46:33.293Z,76.49
2018-04-25T17:49:00.820Z,76.56
2018-04-25T17:51:28.401Z,75.76
2018-04-25T17:53:55.929Z,75.69
2018-04-25T17:56:23.441Z,76.30
2018-04-25T17:58:51.095Z,75.43
2018-04-25T18:01:18.638Z,75.18
2018-04-25T18:03:46.142Z,75.04
2018-04-25T18:06:13.705Z,75.04
2018-04-25T18:08:41.242Z,75.83
2018-04-25T18:11:08.772Z,76.53
2018-04-25T18:13:36.303Z,75.81
2018-04-25T18:16:04.822Z,76.15
2018-04-25T18:18:32.337Z,76.53
2018-04-25T18:20:59.817Z,76.56
2018-04-25T18:23:27.372Z,76.48
2018-04-25T18:25:54.856Z,76.25
2018-04-25T18:28:22.608Z,76.26
2018-04-25T18:30:50.151Z,75.22
2018-04-25T18:33:17.773Z,74.93
2018-04-25T18:35:45.621Z,75.21
2018-04-25T18:38:13.716Z,75.50
2018-04-25T18:40:41.585Z,75.89
2018-04-25T18:43:09.474Z,75.76
2018-04-25T18:45:37.553Z,74.82
2018-04-25T18:48:05.434Z,75.04
2018-04-25T18:50:33.101Z,74.10
2018-04-25T18:53:00.903Z,73.98
2018-04-25T18:55:28.533Z,74.24
2018-04-25T18:57:56.327Z,72.45
2018-04-25T19:00:24.348Z,74.14
2018-04-25T19:02:52.599Z,74.21
2018-04-25T19:05:20.594Z,73.98
2018-04-25T19:07:48.784Z,73.57
2018-04-25T19:10:17.031Z,73.29
2018-04-25T19:12:45.969Z,72.07
2018-04-25T19:15:14.274Z,73.38
2018-04-25T19:17:42.436Z,72.93
2018-04-25T19:20:10.827Z,73.72
2018-04-25T19:22:38.884Z,73.86
2018-04-25T19:25:06.763Z,73.83
2018-04-25T19:27:35.168Z,72.96
2018-04-25T19:30:03.176Z,73.11
2018-04-25T19:32:31.901Z,73.04
2018-04-25T19:35:00.710Z,73.30
2018-04-25T19:37:28.943Z,73.50
2018-04-25T19:39:58.521Z,73.72
2018-04-25T19:42:26.897Z,73.33
2018-04-25T19:44:55.380Z,73.50
2018-04-25T19:47:23.963Z,73.82
2018-04-25T19:49:52.558Z,74.43
2018-04-25T19:52:20.948Z,74.12
2018-04-25T19:54:49.205Z,74.30
2018-04-25T19:57:18.000Z,73.83
2018-04-25T19:59:46.206Z,75.06
2018-04-25T20:02:14.262Z,75.08
2018-04-25T20:04:42.675Z,74.64
2018-04-25T20:07:12.114Z,75.35
2018-04-25T20:09:39.992Z,75.55
2018-04-25T20:12:08.300Z,75.28
2018-04-25T20:14:35.938Z,74.55
2018-04-25T20:17:03.832Z,75.13
2018-04-25T20:19:31.599Z,75.29
2018-04-25T20:22:00.109Z,75.27
2018-04-25T20:24:27.638Z,75.40
2018-04-25T20:26:55.150Z,76.02
2018-04-25T20:29:23.381Z,75.45
2018-04-25T20:31:50.882Z,76.23
2018-04-25T20:34:18.396Z,75.11
2018-04-25T20:36:45.947Z,76.43
2018-04-25T20:39:13.441Z,76.21
2018-04-25T20:41:40.962Z,77.11
2018-04-25T20:44:08.463Z,76.48
2018-04-25T20:46:35.943Z,77.69
2018-04-25T20:49:03.493Z,77.05
2018-04-25T20:51:31.051Z,77.50
2018-04-25T20:53:58.616Z,78.22
2018-04-25T20:56:26.105Z,78.94
2018-04-25T20:58:53.655Z,78.30
2018-04-25T21:01:21.149Z,79.20
2018-04-25T21:03:48.646Z,78.51
2018-04-25T21:06:16.205Z,78.89
2018-04-25T21:08:43.765Z,78.28
2018-04-25T21:11:11.366Z,79.90
2018-04-25T21:13:38.813Z,79.69
2018-04-25T21:16:06.467Z,79.76
2018-04-25T21:18:33.950Z,79.84
2018-04-25T21:21:01.430Z,79.72
2018-04-25T21:23:28.938Z,79.59
2018-04-25T21:25:56.417Z,79.99
2018-04-25T21:28:23.936Z,78.17
2018-04-25T21:30:51.427Z,78.38
2018-04-25T21:33:18.930Z,78.61
2018-04-25T21:35:46.445Z,79.56
2018-04-25T21:38:13.925Z,79.28
2018-04-25T21:40:41.432Z,80.15
2018-04-25T21:43:08.921Z,80.34
2018-04-25T21:45:36.599Z,79.64
2018-04-25T21:48:04.105Z,78.77
2018-04-25T21:50:31.581Z,78.96
2018-04-25T21:52:59.089Z,79.47
2018-04-25T21:55:26.573Z,79.95
2018-04-25T21:57:54.108Z,80.33
2018-04-25T22:00:21.638Z,80.79
2018-04-25T22:02:49.198Z,81.00
2018-04-25T22:05:16.747Z,79.07
2018-04-25T22:07:44.296Z,81.64
2018-04-25T22:10:11.839Z,80.93
2018-04-25T22:12:39.362Z,81.20
2018-04-25T22:15:06.919Z,81.10
2018-04-25T22:17:34.468Z,80.51
2018-04-25T22:20:02.017Z,80.76
2018-04-25T22:22:29.578Z,82.07
2018-04-25T22:24:57.132Z,82.54
2018-04-25T22:27:24.830Z,82.14
2018-04-25T22:29:52.351Z,82.39
2018-04-25T22:32:19.873Z,82.47
2018-04-25T22:34:47.456Z,82.96
2018-04-25T22:37:14.971Z,83.00
2018-04-25T22:39:42.518Z,83.45
2018-04-25T22:42:10.038Z,83.31
2018-04-25T22:44:37.838Z,83.05
2018-04-25T22:47:05.358Z,83.76
2018-04-25T22:49:32.875Z,83.16
2018-04-25T22:52:00.423Z,83.13
2018-04-25T22:54:27.948Z,82.22
2018-04-25T22:56:55.695Z,82.45
2018-04-25T22:59:23.222Z,82.85
2018-04-25T23:01:50.743Z,82.85
2018-04-25T23:04:18.322Z,82.04
2018-04-25T23:06:45.843Z,82.94
2018-04-25T23:09:13.397Z,83.17
2018-04-25T23:11:40.915Z,83.25
2018-04-25T23:14:08.717Z,82.96
2018-04-25T23:16:36.235Z,83.61
2018-04-25T23:19:03.755Z,82.93
2018-04-25T23:21:31.322Z,82.48
2018-04-25T23:23:58.835Z,82.46
2018-04-25T23:26:26.467Z,83.32
2018-04-25T23:28:53.982Z,83.73
2018-04-25T23:31:21.515Z,81.96
2018-04-25T23:33:49.075Z,84.24
2018-04-25T23:36:16.599Z,83.16
2018-04-25T23:38:44.524Z,82.90
2018-04-25T23:41:12.055Z,82.68
2018-04-25T23:43:39.566Z,82.74
2018-04-25T23:46:07.108Z,83.68
2018-04-25T23:48:34.625Z,83.09
2018-04-25T23:51:02.166Z,82.56
2018-04-25T23:53:29.709Z,82.85
2018-04-25T23:55:57.264Z,82.39
2018-04-25T23:58:24.790Z,78.87
